METAR des aéroports

 

LFBA - AGEN (Lot-et-Garonne)
Mise à jour: 22/04/2018 01:00
Clair
Clair
 Vent calm
Vent: Calme
Température: 15°C
Point de Rosée: 11°C
Humidité: 77%
Barometre: 1016 hPa
Visibilité: Supérieure à  10 km
2018/04/21 23:00 LFBA 212300Z AUTO 00000KT CAVOK 15/11 Q1016
LFKJ - AJACCIO (Corse-du-Sud)
Mise à jour: 22/04/2018 01:00
Clair
Clair
 Vent ENE
Vent: ENE 7 km/h
Température: 12°C
Point de Rosée: 10°C
Humidité: 88%
Barometre: 1019 hPa
Visibilité: Supérieure à  10 km
2018/04/21 23:00 LFKJ 212300Z AUTO 06004KT CAVOK 12/10 Q1019 TEMPO 4000 BR BKN014
 
LFJR - ANGERS (Maine-et-Loire)
Mise à jour: 22/04/2018 01:00
Clair
Clair
 Vent calm
Vent: Calme
Température: 14°C
Point de Rosée: 12°C
Humidité: 88%
Barometre: 1014 hPa
Visibilité: Supérieure à  10 km
2018/04/21 23:00 LFJR 212300Z AUTO 00000KT CAVOK 14/12 Q1014
LFLP - ANNECY (Haute-Savoie)
Mise à jour: 22/04/2018 01:00
Clair
Clair
 Vent NE
Vent: NE 9 km/h
Température: 13°C
Point de Rosée: 8°C
Humidité: 72%
Barometre: 1019 hPa
Visibilité: Supérieure à  10 km
2018/04/21 23:00 LFLP 212300Z AUTO 04005KT CAVOK 13/08 Q1019
 
LFMV - AVIGNON (Vaucluse)
Mise à jour: 22/04/2018 01:00
Clair
Clair
 Vent calm
Vent: Calme
Température: 12°C
Point de Rosée: 9°C
Humidité: 82%
Barometre: 1019 hPa
Visibilité: Supérieure à  10 km
2018/04/21 23:00 LFMV 212300Z AUTO 00000KT CAVOK 12/09 Q1019
LFOA - AVORD (Cher)
Mise à jour: 22/04/2018 01:00
Clair
Clair
 Vent variable
Vent: variable 2 km/h
Température: 17°C
Point de Rosée: 10°C
Humidité: 64%
Barometre: 1015 hPa
Visibilité: Supérieure à  10 km
2018/04/21 23:00 LFOA 212300Z AUTO VRB01KT CAVOK 17/10 Q1015
 
LFSB - BALE - MULHOUSE (Haut-Rhin)
Mise à jour: 22/04/2018 01:00
Clair
Clair
 Vent calm
Vent: Calme
Température: 13°C
Point de Rosée: 9°C
Humidité: 77%
Barometre: 1017 hPa
Visibilité: Supérieure à  10 km
2018/04/21 23:00 LFSB 212300Z AUTO 00000KT CAVOK 13/09 Q1017 NOSIG
LFKB - BASTIA (Haute-Corse)
Mise à jour: 22/04/2018 01:00
Clair
Clair
 Vent variable
Vent: variable 6 km/h
Température: 14°C
Point de Rosée: 10°C
Humidité: 77%
Barometre: 1018 hPa
Visibilité: Supérieure à  10 km
2018/04/21 23:00 LFKB 212300Z AUTO VRB03KT CAVOK 14/10 Q1018 NOSIG
 
LFOB - BEAUVAIS (Oise)
Mise à jour: 22/04/2018 01:00
Clair
Clair
 Vent NW
Vent: NW 4 km/h
Température: 12°C
Point de Rosée: 10°C
Humidité: 88%
Barometre: 1015 hPa
Visibilité: Supérieure à  10 km
2018/04/21 23:00 LFOB 212300Z AUTO 32002KT CAVOK 12/10 Q1015 TEMPO 25020G30KT 1500 TSGR BKN060CB
LFBE - BERGERAC (Dordogne)
Mise à jour: 22/04/2018 01:00
Clair
Clair
 Vent ENE
Vent: ENE 7 km/h
Température: 13°C
Point de Rosée: 11°C
Humidité: 88%
Barometre: 1016 hPa
Visibilité: Supérieure à  10 km
2018/04/21 23:00 LFBE 212300Z AUTO 07004KT CAVOK 13/11 Q1016
 
LFMU - BEZIERS (Hérault)
Mise à jour: 22/04/2018 01:00
Clair
Clair
 Vent NE
Vent: NE 15 km/h
Température: 13°C
Point de Rosée: 10°C
Humidité: 82%
Barometre: 1018 hPa
Visibilité: Supérieure à  10 km
2018/04/21 23:00 LFMU 212300Z AUTO 04008KT CAVOK 13/10 Q1018
LFBZ - BIARRITZ (Pyrénées-Atlantiques)
Mise à jour: 22/04/2018 01:00
Clair
Clair
 Vent SSE
Vent: SSE 6 km/h
Température: 19°C
Point de Rosée: 8°C
Humidité: 49%
Barometre: 1015 hPa
Visibilité: Supérieure à  10 km
2018/04/21 23:00 LFBZ 212300Z AUTO 15003KT CAVOK 19/08 Q1015 NOSIG
 
LFBD - BORDEAUX (Gironde)
Mise à jour: 22/04/2018 01:00
Clair
Clair
 Vent SW
Vent: SW 2 km/h
Température: 17°C
Point de Rosée: 12°C
Humidité: 73%
Barometre: 1015 hPa
Visibilité: Supérieure à  10 km
2018/04/21 23:00 LFBD 212300Z AUTO 22001KT CAVOK 17/12 Q1015 NOSIG
LFSL - BRIVE (Correze)
Mise à jour: 22/04/2018 01:00
Clair
Clair
 Vent SE
Vent: SE 4 km/h
Température: 13°C
Point de Rosée: 7°C
Humidité: 67%
Barometre: 1017 hPa
Visibilité: Supérieure à  10 km
2018/04/21 23:00 LFSL 212300Z AUTO 13002KT CAVOK 13/07 Q1017
 
LFRK - CAEN (Calvados)
Mise à jour: 22/04/2018 01:00
Près orage, Orageux
Près orage, Orageux
 Vent variable
Vent: variable 4 km/h
Température: 14°C
Point de Rosée: 12°C
Humidité: 88%
Barometre: 1015 hPa
Nuage: Orageux
Visibilité: 10 km
2018/04/21 23:00 LFRK 212300Z AUTO VRB02KT 9999 VCTS ///CB 14/12 Q1015
LFKC - CALVI (Haute-Corse)
Mise à jour: 22/04/2018 01:00
Clair
Clair
 Vent calm
Vent: Calme
Température: 14°C
Point de Rosée: 11°C
Humidité: 82%
Barometre: 1018 hPa
Visibilité: Supérieure à  10 km
2018/04/21 23:00 LFKC 212300Z AUTO 00000KT CAVOK 14/11 Q1018
 
LFMD - CANNES (Alpes-Maritimes)
Mise à jour: 22/04/2018 01:00
Clair
Clair
 Vent N
Vent: N 9 km/h
Température: 15°C
Point de Rosée: 8°C
Humidité: 63%
Barometre: 1018 hPa
Visibilité: Supérieure à  10 km
2018/04/21 23:00 LFMD 212300Z AUTO 36005KT CAVOK 15/08 Q1018
LFMK - CARCASSONNE (Aude)
Mise à jour: 22/04/2018 01:00
Clair
Clair
 Vent E
Vent: E 7 km/h
Température: 16°C
Point de Rosée: 8°C
Humidité: 59%
Barometre: 1017 hPa
Visibilité: Supérieure à  10 km
2018/04/21 23:00 LFMK 212300Z AUTO 10004KT 080V140 CAVOK 16/08 Q1017
 
LFBC - CAZAUX (Gironde)
Mise à jour: 22/04/2018 01:00
Clair
Clair
 Vent SSE
Vent: SSE 2 km/h
Température: 15°C
Point de Rosée: 13°C
Humidité: 88%
Barometre: 1015 hPa
Visibilité: Supérieure à  10 km
2018/04/21 23:00 LFBC 212300Z AUTO 16001KT CAVOK 15/13 Q1015
LFLB - CHAMBERY (Savoie)
Mise à jour: 22/04/2018 01:00
Clair
Clair
 Vent variable
Vent: variable 4 km/h
Température: 16°C
Point de Rosée: 11°C
Humidité: 72%
Barometre: 1018 hPa
Visibilité: Supérieure à  10 km
2018/04/21 23:00 LFLB 212300Z AUTO VRB02KT CAVOK 16/11 Q1018
 
LFOC - CHATEAUDUN (Eure-et-Loir)
Mise à jour: 22/04/2018 01:00
Clair
Clair
 Vent SSE
Vent: SSE 6 km/h
Température: 16°C
Point de Rosée: 12°C
Humidité: 77%
Barometre: 1015 hPa
Visibilité: Supérieure à  10 km
2018/04/21 23:00 LFOC 212300Z AUTO 15003KT CAVOK 16/12 Q1015
LFLX - CHATEAUROUX (Indre)
Mise à jour: 22/04/2018 01:00
Clair
Clair
 Vent SSW
Vent: SSW 2 km/h
Température: 15°C
Point de Rosée: 14°C
Humidité: 94%
Barometre: 1015 hPa
Visibilité: Supérieure à  10 km
2018/04/21 23:00 LFLX 212300Z AUTO 20001KT CAVOK 15/14 Q1015 NOSIG
 
LFRC - CHERBOURG (Manche)
Mise à jour: 22/04/2018 01:00
Clair
Clair
 Vent SSE
Vent: SSE 15 km/h
Température: 14°C
Point de Rosée: 11°C
Humidité: 82%
Barometre: 1014 hPa
Visibilité: Supérieure à  10 km
2018/04/21 23:00 LFRC 212300Z AUTO 16008KT CAVOK 14/11 Q1014
LFLC - CLERMONT (Puy-De-Dôme)
Mise à jour: 22/04/2018 01:00
Clair
Clair
 Vent S
Vent: S 19 km/h
Température: 17°C
Point de Rosée: 7°C
Humidité: 52%
Barometre: 1017 hPa
Visibilité: Supérieure à  10 km
2018/04/21 23:00 LFLC 212300Z AUTO 17010KT 130V190 CAVOK 17/07 Q1017 NOSIG
 
LFBG - COGNAC (Charente)
Mise à jour: 22/04/2018 01:00
Clair
Clair
 Vent calm
Vent: Calme
Température: 17°C
Point de Rosée: 11°C
Humidité: 68%
Barometre: 1015 hPa
Visibilité: Supérieure à  10 km
2018/04/21 23:00 LFBG 212300Z AUTO 00000KT CAVOK 17/11 Q1015
LFRG - DEAUVILLE (Calvados)
Mise à jour: 22/04/2018 01:00
Orage, Orageux
Orage, Orageux
 Vent ENE
Vent: ENE 9 km/h
Température: 15°C
Point de Rosée: 12°C
Humidité: 82%
Barometre: 1016 hPa
Nuage: Orageux
Visibilité: 10 km
2018/04/21 23:00 LFRG 212300Z AUTO 07005KT 030V100 9999 TS ///CB 15/12 Q1016
 
LFSD - DIJON (Côte d-Or)
Mise à jour: 22/04/2018 01:00
Clair
Clair
 Vent NNW
Vent: NNW 4 km/h
Température: 14°C
Point de Rosée: 10°C
Humidité: 77%
Barometre: 1017 hPa
Visibilité: Supérieure à  10 km
2018/04/21 23:00 LFSD 212300Z AUTO 34002KT CAVOK 14/10 Q1017
LFRD - DINARD (Ille-et-Vilaine)
Mise à jour: 22/04/2018 01:00
Clair
Clair
 Vent SW
Vent: SW 7 km/h
Température: 15°C
Point de Rosée: 9°C
Humidité: 68%
Barometre: 1014 hPa
Visibilité: Supérieure à  10 km
2018/04/21 23:00 LFRD 212300Z AUTO 22004KT CAVOK 15/09 Q1014 NOSIG
 
LFGJ - DOLE (Jura)
Mise à jour: 22/04/2018 01:00
Clair
Clair
 Vent E
Vent: E 7 km/h
Température: 12°C
Point de Rosée: 11°C
Humidité: 94%
Barometre: 1017 hPa
Visibilité: Supérieure à  10 km
2018/04/21 23:00 LFGJ 212300Z AUTO 09004KT CAVOK 12/11 Q1017
FMCZ - DZAOUDZI-PAMANDZI (Mayotte)
Mise à jour: 22/04/2018 01:00
Nuageux
Nuageux
 Vent SW
Vent: SW 13 km/h
Température: 28°C
Humidex: 32°C
Point de Rosée: 25°C
Humidité: 84%
Barometre: 1009 hPa
Nuage: Nuageux
Visibilité: 10 km
2018/04/21 23:00 FMCZ 212300Z AUTO 22007KT 9999 BKN019/// BKN068/// BKN082/// 28/25 Q1009 BECMG FEW022TCU
 
LFOE - EVREUX (Eure)
Mise à jour: 22/04/2018 01:00
Orageux
Orageux
 Vent ESE
Vent: ESE 11 km/h
Température: 18°C
Point de Rosée: 10°C
Humidité: 60%
Barometre: 1015 hPa
Nuage: Orageux
Visibilité: 10 km
2018/04/21 23:00 LFOE 212300Z AUTO 12006KT 9999 ///CB 18/10 Q1015 TEMPO VRB20G40KT 4000 TSRA
LFKF - FIGARI (Corse-du-Sud)
Mise à jour: 22/04/2018 01:00

 Vent NE
Vent: NE 6 km/h
Visibilité: 1 km
2018/04/21 23:00 LFKF 212300Z AUTO 04003KT 1200 0550 R23/0650N BCFG NSC 11/10 Q1019
 
LFLS - GRENOBLE (Isère)
Mise à jour: 22/04/2018 01:00
Clair
Clair
 Vent variable
Vent: variable 6 km/h
Température: 17°C
Point de Rosée: 7°C
Humidité: 52%
Barometre: 1019 hPa
Visibilité: Supérieure à  10 km
2018/04/21 23:00 LFLS 212300Z AUTO VRB03KT CAVOK 17/07 Q1019
LFTH - HYERES (Var)
Mise à jour: 22/04/2018 01:00
Clair
Clair
 Vent calm
Vent: Calme
Température: 13°C
Point de Rosée: 10°C
Humidité: 82%
Barometre: 1018 hPa
Visibilité: Supérieure à  10 km
2018/04/21 23:00 LFTH 212300Z AUTO 00000KT CAVOK 13/10 Q1018 NOSIG
 
LFMI - ISTRES Bouches-du-Rhône)
Mise à jour: 22/04/2018 01:00
Brouillard, Partiellement nuageux
Brouillard, Partiellement nuageux
 Vent ENE
Vent: ENE 4 km/h
Température: 15°C
Point de Rosée: 15°C
Humidité: 100%
Barometre: 1018 hPa
Nuage: Partiellement nuageux
Visibilité: 5 km
2018/04/21 23:00 LFMI 212300Z AUTO 06002KT 5000 BR NSC 15/15 Q1018 NOSIG
LFRI - LA ROCHE SUR YON (Vendée)
Mise à jour: 22/04/2018 01:00
Clair
Clair
 Vent E
Vent: E 6 km/h
Température: 16°C
Point de Rosée: 11°C
Humidité: 72%
Barometre: 1014 hPa
Visibilité: Supérieure à  10 km
2018/04/21 23:00 LFRI 212300Z AUTO 08003KT CAVOK 16/11 Q1014
 
LFBH - LA ROCHELLE (Charente-Maritime)
Mise à jour: 22/04/2018 01:00
Clair
Clair
 Vent variable
Vent: variable 4 km/h
Température: 16°C
Point de Rosée: 12°C
Humidité: 77%
Barometre: 1015 hPa
Visibilité: Supérieure à  10 km
2018/04/21 23:00 LFBH 212300Z AUTO VRB02KT CAVOK 16/12 Q1015 NOSIG
LFRJ - LANDIVISIAU (Finistère)
Mise à jour: 22/04/2018 01:00
Clair
Clair
 Vent S
Vent: S 9 km/h
Température: 14°C
Point de Rosée: 8°C
Humidité: 67%
Barometre: 1013 hPa
Visibilité: Supérieure à  10 km
2018/04/21 23:00 LFRJ 212300Z AUTO 18005KT CAVOK 14/08 Q1013
 
LFOV - LAVAL (Mayenne)
Mise à jour: 22/04/2018 01:00
Clair
Clair
 Vent NW
Vent: NW 6 km/h
Température: 18°C
Point de Rosée: 12°C
Humidité: 68%
Barometre: 1014 hPa
Visibilité: Supérieure à  10 km
2018/04/21 23:00 LFOV 212300Z AUTO 31003KT CAVOK 18/12 Q1014
LFOH - LE HAVRE (Seine-Maritime)
Mise à jour: 22/04/2018 01:00
Orageux
Orageux
 Vent ENE
Vent: ENE 11 km/h
Température: 15°C
Point de Rosée: 12°C
Humidité: 82%
Barometre: 1015 hPa
Nuage: Orageux
Visibilité: 10 km
2018/04/21 23:00 LFOH 212300Z AUTO 06006KT 020V110 9999 ///CB 15/12 Q1015
 
TFFF - LE LAMENTIN (Martinique)
Mise à jour: 22/04/2018 01:00
Quelques nuages
Quelques nuages
 Vent E
Vent: E 17 km/h
Température: 26°C
Point de Rosée: 21°C
Humidité: 74%
Barometre: 1014 hPa
Nuage: Quelques nuages
Visibilité: 10 km
2018/04/21 23:00 TFFF 212300Z AUTO 09009KT 9999 FEW026 26/21 Q1014 NOSIG
LFAT - LE TOUQUET (Pas-de-Calais)
Mise à jour: 22/04/2018 01:00
Partiellement nuageux
Partiellement nuageux
 Vent ESE
Vent: ESE 11 km/h
Température: 16°C
Point de Rosée: 12°C
Humidité: 77%
Barometre: 1015 hPa
Nuage: Partiellement nuageux
Visibilité: 7 km
2018/04/21 23:00 LFAT 212300Z AUTO 12006KT 7000 NSC 16/12 Q1015
 
LFQQ - LILLE (Nord)
Mise à jour: 22/04/2018 01:00
Partiellement nuageux
Partiellement nuageux
 Vent NE
Vent: NE 7 km/h
Température: 17°C
Point de Rosée: 10°C
Humidité: 64%
Barometre: 1015 hPa
Nuage: Partiellement nuageux
Visibilité: 8 km
2018/04/21 23:00 LFQQ 212300Z AUTO 05004KT 8000 NSC 17/10 Q1015 NOSIG
LFBL - LIMOGES (Haute-Vienne)
Mise à jour: 22/04/2018 01:00
Clair
Clair
 Vent E
Vent: E 4 km/h
Température: 18°C
Point de Rosée: 7°C
Humidité: 49%
Barometre: 1017 hPa
Visibilité: Supérieure à  10 km
2018/04/21 23:00 LFBL 212300Z AUTO 09002KT CAVOK 18/07 Q1017 NOSIG
 
LFRH - LANN BIHOUE (Morbihan)
Mise à jour: 22/04/2018 01:00
Clair
Clair
 Vent calm
Vent: Calme
Température: 12°C
Point de Rosée: 10°C
Humidité: 88%
Barometre: 1014 hPa
Visibilité: Supérieure à  10 km
2018/04/21 23:00 LFRH 212300Z AUTO 00000KT CAVOK 12/10 Q1014 BECMG 20010KT
LFSX - LUXEUIL (Haute-Saône)
Mise à jour: 22/04/2018 01:00
Clair
Clair
 Vent calm
Vent: Calme
Température: 12°C
Point de Rosée: 11°C
Humidité: 94%
Barometre: 1017 hPa
Nuage: Clair
Visibilité: 10 km
2018/04/21 23:00 LFSX 212300Z AUTO 00000KT 9999 NCD 12/11 Q1017
 
LFLY - LYON Bron (Rhône)
Mise à jour: 22/04/2018 01:00
Clair
Clair
 Vent SSW
Vent: SSW 11 km/h
Température: 18°C
Point de Rosée: 8°C
Humidité: 52%
Barometre: 1017 hPa
Visibilité: Supérieure à  10 km
2018/04/21 23:00 LFLY 212300Z AUTO 20006KT CAVOK 18/08 Q1017 NOSIG
LFLL - LYON Saint-Exupery (Rhône)
Mise à jour: 22/04/2018 01:00
Clair
Clair
 Vent SSE
Vent: SSE 19 km/h
Température: 20°C
Point de Rosée: 7°C
Humidité: 43%
Barometre: 1017 hPa
Visibilité: Supérieure à  10 km
2018/04/21 23:00 LFLL 212300Z 16010KT CAVOK 20/07 Q1017 NOSIG
 
LFML - MARSEILLE PROVENCE (Bouches-du-Rhône)
Mise à jour: 22/04/2018 01:00
Clair
Clair
 Vent SE
Vent: SE 7 km/h
Température: 15°C
Point de Rosée: 10°C
Humidité: 72%
Barometre: 1018 hPa
Visibilité: Supérieure à  10 km
2018/04/21 23:00 LFML 212300Z AUTO 13004KT CAVOK 15/10 Q1018 NOSIG
LFJL - METZ-NANCY LORRAINE (Moselle)
Mise à jour: 22/04/2018 01:00
Clair
Clair
 Vent SSE
Vent: SSE 11 km/h
Température: 15°C
Point de Rosée: 10°C
Humidité: 72%
Barometre: 1017 hPa
Visibilité: Supérieure à  10 km
2018/04/21 23:00 LFJL 212300Z AUTO 16006KT CAVOK 15/10 Q1017 NOSIG
 
LFBM - MONT DE MARSAN (Landes)
Mise à jour: 22/04/2018 01:00
Clair
Clair
 Vent variable
Vent: variable 2 km/h
Température: 17°C
Point de Rosée: 12°C
Humidité: 73%
Barometre: 1016 hPa
Visibilité: Supérieure à  10 km
2018/04/21 23:00 LFBM 212300Z AUTO VRB01KT CAVOK 17/12 Q1016 NOSIG
LFMT - MONTPELLIER (Hérault)
Mise à jour: 22/04/2018 01:00
Clair
Clair
 Vent NNW
Vent: NNW 6 km/h
Température: 15°C
Point de Rosée: 12°C
Humidité: 82%
Barometre: 1018 hPa
Visibilité: Supérieure à  10 km
2018/04/21 23:00 LFMT 212300Z AUTO 33003KT CAVOK 15/12 Q1018 TEMPO 3000 BR
 
LFRS - NANTES (Loire-Atlantique)
Mise à jour: 22/04/2018 01:00
Clair
Clair
 Vent W
Vent: W 2 km/h
Température: 13°C
Point de Rosée: 10°C
Humidité: 82%
Barometre: 1014 hPa
Visibilité: Supérieure à  10 km
2018/04/21 23:00 LFRS 212300Z AUTO 26001KT CAVOK 13/10 Q1014 NOSIG
LFMN - NICE Alpes-Maritimes)
Mise à jour: 22/04/2018 01:00
Clair
Clair
 Vent NNW
Vent: NNW 13 km/h
Température: 19°C
Point de Rosée: 7°C
Humidité: 46%
Barometre: 1017 hPa
Visibilité: Supérieure à  10 km
2018/04/21 23:00 LFMN 212300Z 33007KT CAVOK 19/07 Q1017 NOSIG
 
LFMO - ORANGE (Vaucluse)
Mise à jour: 22/04/2018 01:00
Clair
Clair
 Vent E
Vent: E 2 km/h
Température: 15°C
Point de Rosée: 8°C
Humidité: 63%
Barometre: 1019 hPa
Visibilité: Supérieure à  10 km
2018/04/21 23:00 LFMO 212300Z AUTO 10001KT CAVOK 15/08 Q1019 NOSIG
LFPG - PARIS CH. DE-GAULLE (Val d-Oise)
Mise à jour: 22/04/2018 01:00
Clair
Clair
 Vent ENE
Vent: ENE 7 km/h
Température: 18°C
Point de Rosée: 9°C
Humidité: 56%
Barometre: 1015 hPa
Visibilité: Supérieure à  10 km
2018/04/21 23:00 LFPG 212300Z 07004KT CAVOK 18/09 Q1015 NOSIG
 
LFPB - PARIS LE BOURGET (Seine-Saint-Denis)
Mise à jour: 22/04/2018 01:00
Clair
Clair
 Vent ENE
Vent: ENE 6 km/h
Température: 17°C
Point de Rosée: 10°C
Humidité: 64%
Barometre: 1015 hPa
Visibilité: Supérieure à  10 km
2018/04/21 23:00 LFPB 212300Z AUTO 06003KT CAVOK 17/10 Q1015 TEMPO 23015G25KT 2500 -TSRAGR SCT040CB
LFPO - PARIS ORLY (Val-de-Marne)
Mise à jour: 22/04/2018 01:00
Clair
Clair
 Vent calm
Vent: Calme
Température: 19°C
Point de Rosée: 9°C
Humidité: 52%
Barometre: 1015 hPa
Visibilité: Supérieure à  10 km
2018/04/21 23:00 LFPO 212300Z 00000KT CAVOK 19/09 Q1015 NOSIG
 
LFBP - PAU (Pyrénées-Atlantiques)
Mise à jour: 22/04/2018 01:00
Clair
Clair
 Vent SSW
Vent: SSW 6 km/h
Température: 17°C
Point de Rosée: 13°C
Humidité: 77%
Barometre: 1016 hPa
Visibilité: Supérieure à  10 km
2018/04/21 23:00 LFBP 212300Z AUTO 20003KT CAVOK 17/13 Q1016 NOSIG
LFMP - PERPIGNAN (Pyrénées-Orientales)
Mise à jour: 22/04/2018 01:00
Clair
Clair
 Vent variable
Vent: variable 2 km/h
Température: 14°C
Point de Rosée: 10°C
Humidité: 77%
Barometre: 1017 hPa
Visibilité: Supérieure à  10 km
2018/04/21 23:00 LFMP 212300Z AUTO VRB01KT CAVOK 14/10 Q1017
 
TFFR - Point à Pitre (Guadeloupe)
Mise à jour: 22/04/2018 01:00
Nuageux
Nuageux
 Vent E
Vent: E 11 km/h
Température: 26°C
Point de Rosée: 20°C
Humidité: 70%
Barometre: 1015 hPa
Nuage: Nuageux
Visibilité: 10 km
2018/04/21 23:00 TFFR 212300Z AUTO 10006KT 070V130 9999 BKN026 BKN032 BKN040 26/20 Q1015 NOSIG
LFBI - POITIERS (Vienne)
Mise à jour: 22/04/2018 01:00
Clair
Clair
 Vent SSW
Vent: SSW 7 km/h
Température: 16°C
Point de Rosée: 11°C
Humidité: 72%
Barometre: 1015 hPa
Visibilité: Supérieure à  10 km
2018/04/21 23:00 LFBI 212300Z AUTO 20004KT CAVOK 16/11 Q1015 NOSIG
 
LFRQ - QUIMPER (Finistère)
Mise à jour: 22/04/2018 01:00
Clair
Clair
 Vent variable
Vent: variable 4 km/h
Température: 11°C
Point de Rosée: 10°C
Humidité: 94%
Barometre: 1014 hPa
Visibilité: Supérieure à  10 km
2018/04/21 23:00 LFRQ 212300Z AUTO VRB02KT CAVOK 11/10 Q1014
LFRN - RENNES (Ille-et-Vilaine)
Mise à jour: 22/04/2018 01:00
Clair
Clair
 Vent calm
Vent: Calme
Température: 14°C
Point de Rosée: 11°C
Humidité: 82%
Barometre: 1014 hPa
Visibilité: Supérieure à  10 km
2018/04/21 23:00 LFRN 212300Z AUTO 00000KT CAVOK 14/11 Q1014 NOSIG
 
LFCR - RODEZ (Aveyron)
Mise à jour: 22/04/2018 01:00
Clair
Clair
 Vent ESE
Vent: ESE 15 km/h
Température: 15°C
Point de Rosée: 4°C
Humidité: 48%
Barometre: 1018 hPa
Visibilité: Supérieure à  10 km
2018/04/21 23:00 LFCR 212300Z AUTO 11008KT CAVOK 15/04 Q1018 NOSIG
LFOP - ROUEN (Seine-Maritime)
Mise à jour: 22/04/2018 01:00
Orageux
Orageux
 Vent E
Vent: E 15 km/h
Température: 16°C
Point de Rosée: 10°C
Humidité: 68%
Barometre: 1015 hPa
Nuage: Orageux
Visibilité: 10 km
2018/04/21 23:00 LFOP 212300Z AUTO 10008KT 9999 ///CB 16/10 Q1015
 
LFRT - SAINT-BRIEUC (Côtes d-Armor)
Mise à jour: 21/04/2018 23:00
Pas Actualisé
Clair
Clair
 Vent SSW
Vent: SSW 11 km/h
Température: 17°C
Point de Rosée: 8°C
Humidité: 56%
Barometre: 1014 hPa
Visibilité: Supérieure à  10 km
2018/04/21 21:00 LFRT 212100Z AUTO 21006KT 170V250 CAVOK 17/08 Q1014
FMEE - Saint-Denis (Réunion)
Mise à jour: 22/04/2018 01:00
Couvert
Couvert
 Vent SE
Vent: SE 24 km/h
Température: 24°C
Point de Rosée: 20°C
Humidité: 78%
Barometre: 1013 hPa
Nuage: Couvert
Visibilité: 10 km
2018/04/21 23:00 FMEE 212300Z AUTO 14013KT 9999 FEW028 OVC049 24/20 Q1013 TEMPO 3000 SHRA SCT020TCU
 
LFMH - SAINT-ETIENNE (Loire)
Mise à jour: 22/04/2018 01:00
Clair
Clair
 Vent SSE
Vent: SSE 6 km/h
Température: 10°C
Point de Rosée: 5°C
Humidité: 71%
Barometre: 1018 hPa
Visibilité: Supérieure à  10 km
2018/04/21 23:00 LFMH 212300Z AUTO 16003KT CAVOK 10/05 Q1018
LFRZ - SAINT-NAZAIRE (Loire-Atlantique)
Mise à jour: 22/04/2018 01:00
Clair
Clair
 Vent calm
Vent: Calme
Température: 12°C
Point de Rosée: 10°C
Humidité: 88%
Barometre: 1014 hPa
Visibilité: Supérieure à  10 km
2018/04/21 23:00 LFRZ 212300Z AUTO 00000KT CAVOK 12/10 Q1014 NOSIG
 
LFVP - SAINT-PIERRE (St Pierre et Miquelon)
Mise à jour: 22/04/2018 01:00
Nuageux
Nuageux
 Vent W
Vent: W 46 km/h, Rafale: 65 km/h
Température: 0°C
Température au Vent: -8°C
Point de Rosée: -2°C
Humidité: 87%
Barometre: 1011 hPa
Nuage: Nuageux
Visibilité: 10 km
2018/04/21 23:00 LFVP 212300Z 27025G35KT 9999 BKN013 00/M02 Q1011 NOSIG
LFLN - SAINT-YAN (Saône-et-Loire)
Mise à jour: 22/04/2018 01:00
Clair
Clair
 Vent variable
Vent: variable 4 km/h
Température: 14°C
Point de Rosée: 11°C
Humidité: 82%
Barometre: 1016 hPa
Visibilité: Supérieure à  10 km
2018/04/21 23:00 LFLN 212300Z AUTO VRB02KT CAVOK 14/11 Q1016
 
LFMY - SALON (Bouches-du-Rhône)
Mise à jour: 22/04/2018 01:00
Clair
Clair
 Vent calm
Vent: Calme
Température: 12°C
Point de Rosée: 9°C
Humidité: 82%
Barometre: 1019 hPa
Visibilité: Supérieure à  10 km
2018/04/21 23:00 LFMY 212300Z AUTO 00000KT CAVOK 12/09 Q1019
SOCA - MATURY (Guyane)
Mise à jour: 22/04/2018 01:00
Clair
Clair
 Vent E
Vent: E 2 km/h
Température: 25°C
Point de Rosée: 25°C
Humidité: 100%
Barometre: 1011 hPa
Visibilité: Supérieure à  10 km
2018/04/21 23:00 SOCA 212300Z AUTO 08001KT CAVOK 25/25 Q1011 TEMPO SHRA
 
LFKS - SOLENZARA (Corse-du-Sud)
Mise à jour: 22/04/2018 01:00
Clair
Clair
 Vent variable
Vent: variable 6 km/h
Température: 15°C
Point de Rosée: 10°C
Humidité: 72%
Barometre: 1019 hPa
Visibilité: Supérieure à  10 km
2018/04/21 23:00 LFKS 212300Z AUTO VRB03KT CAVOK 15/10 Q1019
LFST - STRASBOURG (Bas-Rhin)
Mise à jour: 22/04/2018 01:00
Clair
Clair
 Vent W
Vent: W 4 km/h
Température: 16°C
Point de Rosée: 11°C
Humidité: 72%
Barometre: 1017 hPa
Visibilité: Supérieure à  10 km
2018/04/21 23:00 LFST 212300Z AUTO 28002KT CAVOK 16/11 Q1017 NOSIG
 
LFBT - TARBES - LOURDES (Hautes-Pyrénées)
Mise à jour: 22/04/2018 01:00
Clair
Clair
 Vent SSE
Vent: SSE 6 km/h
Température: 14°C
Point de Rosée: 11°C
Humidité: 82%
Barometre: 1016 hPa
Visibilité: Supérieure à  10 km
2018/04/21 23:00 LFBT 212300Z AUTO 16003KT CAVOK 14/11 Q1016 NOSIG
LFBO - TOULOUSE BLAGNAC (Haute-Garonne)
Mise à jour: 22/04/2018 01:00
Clair
Clair
 Vent SE
Vent: SE 17 km/h
Température: 17°C
Point de Rosée: 7°C
Humidité: 52%
Barometre: 1016 hPa
Visibilité: Supérieure à  10 km
2018/04/21 23:00 LFBO 212300Z AUTO 13009KT CAVOK 17/07 Q1016 NOSIG
 
LFOT - TOURS (Indre-et-Loire)
Mise à jour: 22/04/2018 01:00
Clair
Clair
 Vent variable
Vent: variable 2 km/h
Température: 16°C
Point de Rosée: 13°C
Humidité: 83%
Barometre: 1014 hPa
Visibilité: Supérieure à  10 km
2018/04/21 23:00 LFOT 212300Z AUTO VRB01KT CAVOK 16/13 Q1014 NOSIG
LFPN - TOUSSUS-LE-NOBLE (Yvelines)
Mise à jour: 22/04/2018 01:00
Clair
Clair
 Vent calm
Vent: Calme
Température: 17°C
Point de Rosée: 10°C
Humidité: 64%
Barometre: 1015 hPa
Visibilité: Supérieure à  10 km
2018/04/21 23:00 LFPN 212300Z AUTO 00000KT CAVOK 17/10 Q1015
 
LFQB - TROYES (Aube)
Mise à jour: 22/04/2018 01:00
Clair
Clair
 Vent SSE
Vent: SSE 4 km/h
Température: 13°C
Point de Rosée: 10°C
Humidité: 82%
Barometre: 1016 hPa
Visibilité: Supérieure à  10 km
2018/04/21 23:00 LFQB 212300Z AUTO 16002KT CAVOK 13/10 Q1016
LFSI - SAINT-DIZIER (Haute-Marne)
Mise à jour: 22/04/2018 01:00
Clair
Clair
 Vent variable
Vent: variable 4 km/h
Température: 15°C
Point de Rosée: 13°C
Humidité: 88%
Barometre: 1016 hPa
Visibilité: Supérieure à  10 km
2018/04/21 23:00 LFSI 212300Z AUTO VRB02KT CAVOK 15/13 Q1016

Metar display script from Saratoga-Weather.org